createdAt,value
2017-09-30T00:02:14.745Z,16.40
2017-09-30T00:04:41.078Z,16.20
2017-09-30T00:07:07.367Z,16.20
2017-09-30T00:09:34.265Z,16.20
2017-09-30T00:12:00.551Z,16.10
2017-09-30T00:14:26.857Z,16.10
2017-09-30T00:16:53.128Z,16.00
2017-09-30T00:19:19.781Z,15.90
2017-09-30T00:21:46.065Z,15.90
2017-09-30T00:24:12.371Z,15.80
2017-09-30T00:26:41.509Z,15.80
2017-09-30T00:29:09.699Z,15.60
2017-09-30T00:31:38.076Z,15.70
2017-09-30T00:34:12.414Z,15.60
2017-09-30T00:36:42.326Z,15.60
2017-09-30T00:39:10.331Z,15.60
2017-09-30T00:41:51.957Z,15.60
2017-09-30T00:44:22.068Z,15.50
2017-09-30T00:46:49.121Z,15.40
2017-09-30T00:49:16.361Z,15.40
2017-09-30T00:51:44.629Z,15.30
2017-09-30T00:54:10.936Z,15.30
2017-09-30T00:56:37.252Z,15.30
2017-09-30T00:59:03.555Z,15.10
2017-09-30T01:01:30.228Z,15.10
2017-09-30T01:03:56.527Z,15.20
2017-09-30T01:06:23.810Z,15.10
2017-09-30T01:08:50.156Z,15.10
2017-09-30T01:11:16.499Z,15.20
2017-09-30T01:13:42.792Z,15.20
2017-09-30T01:16:09.126Z,15.20
2017-09-30T01:18:35.431Z,15.20
2017-09-30T01:21:02.137Z,15.20
2017-09-30T01:23:28.434Z,15.20
2017-09-30T01:25:54.749Z,15.10
2017-09-30T01:28:21.065Z,15.10
2017-09-30T01:30:47.388Z,15.10
2017-09-30T01:33:13.695Z,15.00
2017-09-30T01:35:40.384Z,15.00
2017-09-30T01:38:06.704Z,15.00
2017-09-30T01:40:33.009Z,15.00
2017-09-30T01:42:59.691Z,14.70
2017-09-30T01:45:25.997Z,14.70
2017-09-30T01:47:52.299Z,14.70
2017-09-30T01:50:19.199Z,14.80
2017-09-30T01:52:45.518Z,14.80
2017-09-30T01:55:11.816Z,14.80
2017-09-30T01:57:38.507Z,14.70
2017-09-30T02:00:04.831Z,14.70
2017-09-30T02:02:32.130Z,14.70
2017-09-30T02:04:59.416Z,14.60
2017-09-30T02:07:25.699Z,14.60
2017-09-30T02:09:52.625Z,14.60
2017-09-30T02:12:18.935Z,14.70
2017-09-30T02:14:45.243Z,14.60
2017-09-30T02:17:11.541Z,14.40
2017-09-30T02:19:37.828Z,14.40
2017-09-30T02:22:04.103Z,14.50
2017-09-30T02:24:31.359Z,14.50
2017-09-30T02:26:57.634Z,14.50
2017-09-30T02:29:23.909Z,14.50
2017-09-30T02:31:50.193Z,14.50
2017-09-30T02:34:16.520Z,14.50
2017-09-30T02:36:43.687Z,14.50
2017-09-30T02:39:09.992Z,14.50
2017-09-30T02:41:37.168Z,14.50
2017-09-30T02:44:03.445Z,14.50
2017-09-30T02:46:29.732Z,14.60
2017-09-30T02:48:56.024Z,14.50
2017-09-30T02:51:22.290Z,14.50
2017-09-30T02:53:48.573Z,14.50
2017-09-30T02:56:14.820Z,14.50
2017-09-30T02:58:41.542Z,14.50
2017-09-30T03:01:08.476Z,14.50
2017-09-30T03:03:34.751Z,14.30
2017-09-30T03:06:01.700Z,14.10
2017-09-30T03:08:27.992Z,14.20
2017-09-30T03:10:54.284Z,14.20
2017-09-30T03:13:20.549Z,14.30
2017-09-30T03:15:47.549Z,14.30
2017-09-30T03:18:15.680Z,14.40
2017-09-30T03:20:41.922Z,14.40
2017-09-30T03:23:08.211Z,14.40
2017-09-30T03:25:34.467Z,14.50
2017-09-30T03:28:00.760Z,14.40
2017-09-30T03:30:27.409Z,14.40
2017-09-30T03:32:54.084Z,14.50
2017-09-30T03:35:20.415Z,14.50
2017-09-30T03:37:47.590Z,14.70
2017-09-30T03:40:13.878Z,14.70
2017-09-30T03:42:42.137Z,14.70
2017-09-30T03:45:08.432Z,14.70
2017-09-30T03:47:35.624Z,14.70
2017-09-30T03:50:01.932Z,14.60
2017-09-30T03:52:28.609Z,14.80
2017-09-30T03:54:55.234Z,14.80
2017-09-30T03:57:21.531Z,14.90
2017-09-30T03:59:47.788Z,14.90
2017-09-30T04:02:14.068Z,14.90
2017-09-30T04:04:40.334Z,15.00
2017-09-30T04:07:06.985Z,15.10
2017-09-30T04:09:33.263Z,15.10
2017-09-30T04:11:59.540Z,15.10
2017-09-30T04:14:25.783Z,15.20
2017-09-30T04:16:52.047Z,15.10
2017-09-30T04:19:18.303Z,15.20
2017-09-30T04:21:44.990Z,15.20
2017-09-30T04:24:11.296Z,15.20
2017-09-30T04:26:38.492Z,15.20
2017-09-30T04:29:04.777Z,15.20
2017-09-30T04:31:31.048Z,15.20
2017-09-30T04:33:57.331Z,15.30
2017-09-30T04:36:23.638Z,15.20
2017-09-30T04:38:50.299Z,15.00
2017-09-30T04:41:16.587Z,15.00
2017-09-30T04:43:42.875Z,15.10
2017-09-30T04:46:09.144Z,15.10
2017-09-30T04:48:35.524Z,15.20
2017-09-30T04:51:01.798Z,15.30
2017-09-30T04:53:28.051Z,15.20
2017-09-30T04:55:54.334Z,15.30
2017-09-30T04:58:20.588Z,15.40
2017-09-30T05:00:46.879Z,15.40
2017-09-30T05:03:13.142Z,15.50
2017-09-30T05:05:39.436Z,15.50
2017-09-30T05:08:05.694Z,15.40
2017-09-30T05:10:31.956Z,15.30
2017-09-30T05:12:58.228Z,15.30
2017-09-30T05:15:24.492Z,15.30
2017-09-30T05:17:50.771Z,15.40
2017-09-30T05:20:17.044Z,15.40
2017-09-30T05:22:43.332Z,15.00
2017-09-30T05:25:09.596Z,14.70
2017-09-30T05:27:35.900Z,14.50
2017-09-30T05:30:02.208Z,14.50
2017-09-30T05:32:28.839Z,14.70
2017-09-30T05:34:55.766Z,14.80
2017-09-30T05:37:22.047Z,14.90
2017-09-30T05:39:48.327Z,15.00
2017-09-30T05:42:14.592Z,15.00
2017-09-30T05:44:40.860Z,15.00
2017-09-30T05:47:07.178Z,15.10
2017-09-30T05:49:33.475Z,15.30
2017-09-30T05:51:59.774Z,15.30
2017-09-30T05:54:26.042Z,15.40
2017-09-30T05:56:52.300Z,15.30
2017-09-30T05:59:18.585Z,15.30
2017-09-30T06:01:45.144Z,15.40
2017-09-30T06:04:11.419Z,15.50
2017-09-30T06:06:37.687Z,15.70
2017-09-30T06:09:03.993Z,15.80
2017-09-30T06:11:30.301Z,15.90
2017-09-30T06:13:56.591Z,16.00
2017-09-30T06:16:22.871Z,16.00
2017-09-30T06:18:49.199Z,16.00
2017-09-30T06:21:15.470Z,16.00
2017-09-30T06:23:41.777Z,16.10
2017-09-30T06:26:08.109Z,16.20
2017-09-30T06:28:34.739Z,16.40
2017-09-30T06:31:01.459Z,16.40
2017-09-30T06:33:27.786Z,16.40
2017-09-30T06:35:54.110Z,16.30
2017-09-30T06:38:20.440Z,16.30
2017-09-30T06:40:46.732Z,16.30
2017-09-30T06:43:13.653Z,16.40
2017-09-30T06:45:40.008Z,16.50
2017-09-30T06:48:06.318Z,16.40
2017-09-30T06:50:32.607Z,16.30
2017-09-30T06:52:58.904Z,16.30
2017-09-30T06:55:25.187Z,16.30
2017-09-30T06:57:51.499Z,16.40
2017-09-30T07:00:17.767Z,16.30
2017-09-30T07:02:44.096Z,16.30
2017-09-30T07:05:10.364Z,16.30
2017-09-30T07:07:36.707Z,16.30
2017-09-30T07:10:02.983Z,16.20
2017-09-30T07:12:29.654Z,16.40
2017-09-30T07:14:55.951Z,16.40
2017-09-30T07:17:22.657Z,16.20
2017-09-30T07:19:48.944Z,16.30
2017-09-30T07:22:15.560Z,16.30
2017-09-30T07:24:41.842Z,16.40
2017-09-30T07:27:08.153Z,16.40
2017-09-30T07:29:34.479Z,16.50
2017-09-30T07:32:00.755Z,16.50
2017-09-30T07:34:27.049Z,16.60
2017-09-30T07:36:53.336Z,16.60
2017-09-30T07:39:19.628Z,16.70
2017-09-30T07:41:45.904Z,17.00
2017-09-30T07:44:12.230Z,17.20
2017-09-30T07:46:38.525Z,17.30
2017-09-30T07:49:04.792Z,17.20
2017-09-30T07:51:31.124Z,17.50
2017-09-30T07:53:57.500Z,17.70
2017-09-30T07:56:24.397Z,17.80
2017-09-30T07:58:50.702Z,18.00
2017-09-30T08:01:17.420Z,18.50
2017-09-30T08:03:43.764Z,18.50
2017-09-30T08:06:10.040Z,18.40
2017-09-30T08:08:36.361Z,18.30
2017-09-30T08:11:02.628Z,17.90
2017-09-30T08:13:28.915Z,17.90
2017-09-30T08:15:55.931Z,17.90
2017-09-30T08:18:22.219Z,18.00
2017-09-30T08:20:48.581Z,18.00
2017-09-30T08:23:14.878Z,18.10
2017-09-30T08:25:41.184Z,18.30
2017-09-30T08:28:07.486Z,18.60
2017-09-30T08:30:35.833Z,18.80
2017-09-30T08:33:02.887Z,18.80
2017-09-30T08:35:29.208Z,18.80
2017-09-30T08:37:55.536Z,18.80
2017-09-30T08:40:21.917Z,18.80
2017-09-30T08:42:48.596Z,18.50
2017-09-30T08:45:15.176Z,18.50
2017-09-30T08:47:41.430Z,18.40
2017-09-30T08:50:07.959Z,18.40
2017-09-30T08:52:34.326Z,18.50
2017-09-30T08:55:00.636Z,18.50
2017-09-30T08:57:26.968Z,18.50
2017-09-30T08:59:53.551Z,18.70
2017-09-30T09:02:20.806Z,18.80
2017-09-30T09:04:47.158Z,18.70
2017-09-30T09:07:13.867Z,18.60
2017-09-30T09:09:40.206Z,18.70
2017-09-30T09:12:06.501Z,18.70
2017-09-30T09:14:32.837Z,18.80
2017-09-30T09:16:59.180Z,18.70
2017-09-30T09:19:25.533Z,18.70
2017-09-30T09:21:51.844Z,18.70
2017-09-30T09:24:18.158Z,18.70
2017-09-30T09:26:44.455Z,18.80
2017-09-30T09:29:10.851Z,18.90
2017-09-30T09:31:37.168Z,19.20
2017-09-30T09:34:03.515Z,19.30
2017-09-30T09:36:29.836Z,19.40
2017-09-30T09:38:56.139Z,19.40
2017-09-30T09:41:22.458Z,19.40
2017-09-30T09:43:48.744Z,19.40
2017-09-30T09:46:15.439Z,19.40
2017-09-30T09:48:41.719Z,19.50
2017-09-30T09:51:08.035Z,19.80
2017-09-30T09:53:34.339Z,19.80
2017-09-30T09:56:00.617Z,19.80
2017-09-30T09:58:27.824Z,19.60
2017-09-30T10:00:54.126Z,19.60
2017-09-30T10:03:20.403Z,19.70
2017-09-30T10:05:47.039Z,19.80
2017-09-30T10:08:13.371Z,19.80
2017-09-30T10:10:39.706Z,19.80
2017-09-30T10:13:06.904Z,19.50
2017-09-30T10:15:33.176Z,19.90
2017-09-30T10:17:59.516Z,20.20
2017-09-30T10:20:25.795Z,20.70
2017-09-30T10:22:52.083Z,21.10
2017-09-30T10:25:18.792Z,21.50
2017-09-30T10:27:45.102Z,21.40
2017-09-30T10:30:11.395Z,21.60
2017-09-30T10:32:38.063Z,24.30
2017-09-30T10:35:04.327Z,24.40
2017-09-30T10:37:30.610Z,25.70
2017-09-30T10:39:56.899Z,25.90
2017-09-30T10:42:23.163Z,26.10
2017-09-30T10:44:55.204Z,26.40
2017-09-30T10:47:21.852Z,27.40
2017-09-30T10:49:48.145Z,27.40
2017-09-30T10:52:14.425Z,27.90
2017-09-30T10:54:40.693Z,28.20
2017-09-30T10:57:07.000Z,28.20
2017-09-30T10:59:33.299Z,28.20
2017-09-30T11:01:59.588Z,27.90
2017-09-30T11:04:25.890Z,27.80
2017-09-30T11:06:52.238Z,27.70
2017-09-30T11:09:18.574Z,27.90
2017-09-30T11:11:44.882Z,28.30
2017-09-30T11:14:11.156Z,28.70
2017-09-30T11:16:37.447Z,28.80
2017-09-30T11:19:03.720Z,29.20
2017-09-30T11:21:30.009Z,29.80
2017-09-30T11:23:56.315Z,29.10
2017-09-30T11:26:22.640Z,29.10
2017-09-30T11:28:48.970Z,29.00
2017-09-30T11:31:15.231Z,29.60
2017-09-30T11:33:43.352Z,30.10
2017-09-30T11:36:10.032Z,31.10
2017-09-30T11:38:36.330Z,31.10
2017-09-30T11:41:03.004Z,35.90
2017-09-30T11:43:29.294Z,35.90
2017-09-30T11:45:55.951Z,41.60
2017-09-30T11:48:22.238Z,41.60
2017-09-30T11:50:48.533Z,43.90
2017-09-30T11:53:14.825Z,45.40
2017-09-30T11:55:41.503Z,48.30
2017-09-30T11:58:07.815Z,48.30
2017-09-30T12:00:34.096Z,49.30
2017-09-30T12:03:03.358Z,49.90
2017-09-30T12:05:29.735Z,50.60
2017-09-30T12:07:56.535Z,51.00
2017-09-30T12:10:22.791Z,51.50
2017-09-30T12:12:49.075Z,52.10
2017-09-30T12:15:15.383Z,52.40
2017-09-30T12:17:41.692Z,52.80
2017-09-30T12:20:08.002Z,53.40
2017-09-30T12:22:34.337Z,53.90
2017-09-30T12:25:02.606Z,54.30
2017-09-30T12:27:29.285Z,55.10
2017-09-30T12:29:55.577Z,55.20
2017-09-30T12:32:25.182Z,54.10
2017-09-30T12:34:51.473Z,51.60
2017-09-30T12:37:17.796Z,51.70
2017-09-30T12:39:45.075Z,52.90
2017-09-30T12:42:11.360Z,51.90
2017-09-30T12:44:37.644Z,48.60
2017-09-30T12:47:03.966Z,45.20
2017-09-30T12:49:30.215Z,42.80
2017-09-30T12:51:56.552Z,43.00
2017-09-30T12:54:22.856Z,45.20
2017-09-30T12:56:49.146Z,47.90
2017-09-30T12:59:15.447Z,49.50
2017-09-30T13:01:41.707Z,51.30
2017-09-30T13:04:08.838Z,52.00
2017-09-30T13:06:35.146Z,50.50
2017-09-30T13:09:01.440Z,47.30
2017-09-30T13:11:27.725Z,43.90
2017-09-30T13:13:54.380Z,39.30
2017-09-30T13:16:20.707Z,39.30
2017-09-30T13:18:47.408Z,38.10
2017-09-30T13:21:13.691Z,38.10
2017-09-30T13:23:39.988Z,38.10
2017-09-30T13:26:06.646Z,37.30
2017-09-30T13:28:33.280Z,36.90
2017-09-30T13:30:59.552Z,36.90
2017-09-30T13:33:26.632Z,36.20
2017-09-30T13:35:53.009Z,35.00
2017-09-30T13:38:19.330Z,34.00
2017-09-30T13:40:45.664Z,34.80
2017-09-30T13:43:12.052Z,36.70
2017-09-30T13:45:38.359Z,37.70
2017-09-30T13:48:04.675Z,40.30
2017-09-30T13:50:30.975Z,42.90
2017-09-30T13:52:57.283Z,46.10
2017-09-30T13:55:23.620Z,48.80
2017-09-30T13:57:50.271Z,45.70
2017-09-30T14:00:16.935Z,42.60
2017-09-30T14:02:43.229Z,42.60
2017-09-30T14:05:10.395Z,39.80
2017-09-30T14:07:36.804Z,37.40
2017-09-30T14:10:03.493Z,33.70
2017-09-30T14:12:29.846Z,33.70
2017-09-30T14:14:56.186Z,32.30
2017-09-30T14:17:23.536Z,31.10
2017-09-30T14:19:53.435Z,30.10
2017-09-30T14:22:19.738Z,29.40
2017-09-30T14:24:46.051Z,28.70
2017-09-30T14:27:12.465Z,28.40
2017-09-30T14:29:39.746Z,28.00
2017-09-30T14:32:07.132Z,28.00
2017-09-30T14:34:34.833Z,28.00
2017-09-30T14:37:01.193Z,28.10
2017-09-30T14:39:28.383Z,28.30
2017-09-30T14:41:54.656Z,28.60
2017-09-30T14:44:21.342Z,29.20
2017-09-30T14:46:47.649Z,29.10
2017-09-30T14:49:13.972Z,29.40
2017-09-30T14:51:40.260Z,29.90
2017-09-30T14:54:07.098Z,30.80
2017-09-30T14:56:33.404Z,31.60
2017-09-30T14:58:59.721Z,32.00
2017-09-30T15:01:26.552Z,31.90
2017-09-30T15:03:52.836Z,31.50
2017-09-30T15:06:19.170Z,30.90
2017-09-30T15:08:46.901Z,30.30
2017-09-30T15:11:13.207Z,29.80
2017-09-30T15:13:39.515Z,29.10
2017-09-30T15:16:07.179Z,27.60
2017-09-30T15:18:33.468Z,27.60
2017-09-30T15:20:59.803Z,26.90
2017-09-30T15:23:26.085Z,26.30
2017-09-30T15:25:52.365Z,25.60
2017-09-30T15:28:18.654Z,25.20
2017-09-30T15:30:44.923Z,24.80
2017-09-30T15:33:12.765Z,24.40
2017-09-30T15:35:39.034Z,24.20
2017-09-30T15:38:06.131Z,23.80
2017-09-30T15:40:32.404Z,23.80
2017-09-30T15:42:58.745Z,23.60
2017-09-30T15:45:25.447Z,23.40
2017-09-30T15:47:51.715Z,23.40
2017-09-30T15:50:18.041Z,23.30
2017-09-30T15:52:45.367Z,23.10
2017-09-30T15:55:11.663Z,23.10
2017-09-30T15:57:37.987Z,23.00
2017-09-30T16:00:04.288Z,22.80
2017-09-30T16:02:30.605Z,22.70
2017-09-30T16:04:56.875Z,22.60
2017-09-30T16:07:23.189Z,22.50
2017-09-30T16:09:49.492Z,22.40
2017-09-30T16:12:15.807Z,22.30
2017-09-30T16:14:42.085Z,22.20
2017-09-30T16:17:08.380Z,22.20
2017-09-30T16:19:35.542Z,22.10
2017-09-30T16:22:01.815Z,22.10
2017-09-30T16:24:28.150Z,22.00
2017-09-30T16:26:54.441Z,22.00
2017-09-30T16:29:20.756Z,21.80
2017-09-30T16:31:47.463Z,21.60
2017-09-30T16:34:13.768Z,21.60
2017-09-30T16:36:40.320Z,21.50
2017-09-30T16:39:06.688Z,21.50
2017-09-30T16:41:32.986Z,21.50
2017-09-30T16:43:59.433Z,21.40
2017-09-30T16:46:25.839Z,21.10
2017-09-30T16:48:52.141Z,20.40
2017-09-30T16:51:19.059Z,20.00
2017-09-30T16:53:45.860Z,19.10
2017-09-30T16:56:12.216Z,19.10
2017-09-30T16:58:39.816Z,18.50
2017-09-30T17:01:06.881Z,17.90
2017-09-30T17:03:33.163Z,17.40
2017-09-30T17:05:59.523Z,17.30
2017-09-30T17:08:25.811Z,17.30
2017-09-30T17:10:52.098Z,17.30
2017-09-30T17:13:18.397Z,17.30
2017-09-30T17:15:45.167Z,17.30
2017-09-30T17:18:12.438Z,17.30
2017-09-30T17:20:39.201Z,17.20
2017-09-30T17:23:06.021Z,17.20
2017-09-30T17:25:32.584Z,17.30
2017-09-30T17:27:58.959Z,17.10
2017-09-30T17:30:25.347Z,17.10
2017-09-30T17:32:51.764Z,17.20
2017-09-30T17:35:18.588Z,17.20
2017-09-30T17:37:45.705Z,17.00
2017-09-30T17:40:12.325Z,17.00
2017-09-30T17:42:39.677Z,16.90
2017-09-30T17:45:06.482Z,16.80
2017-09-30T17:47:33.392Z,16.80
2017-09-30T17:50:00.962Z,16.80
2017-09-30T17:52:27.260Z,16.80
2017-09-30T17:54:53.970Z,16.70
2017-09-30T17:57:21.040Z,16.70
2017-09-30T17:59:47.348Z,16.70
2017-09-30T18:02:13.630Z,16.60
2017-09-30T18:04:39.911Z,16.70
2017-09-30T18:07:06.226Z,16.60
2017-09-30T18:09:32.496Z,16.70
2017-09-30T18:12:00.162Z,16.70
2017-09-30T18:14:26.882Z,16.60
2017-09-30T18:16:53.291Z,16.60
2017-09-30T18:19:19.598Z,16.80
2017-09-30T18:21:46.497Z,16.70
2017-09-30T18:24:13.212Z,16.60
2017-09-30T18:26:39.516Z,16.60
2017-09-30T18:29:05.873Z,16.60
2017-09-30T18:31:32.652Z,16.70
2017-09-30T18:33:59.403Z,16.30
2017-09-30T18:36:25.698Z,16.30
2017-09-30T18:38:52.043Z,16.10
2017-09-30T18:41:18.345Z,16.00
2017-09-30T18:43:44.707Z,15.80
2017-09-30T18:46:11.002Z,15.80
2017-09-30T18:48:37.311Z,15.70
2017-09-30T18:51:03.653Z,15.70
2017-09-30T18:53:29.985Z,15.60
2017-09-30T18:55:56.598Z,15.50
2017-09-30T18:58:22.956Z,15.60
2017-09-30T19:00:49.296Z,15.40
2017-09-30T19:03:15.683Z,15.30
2017-09-30T19:05:42.818Z,15.20
2017-09-30T19:08:09.464Z,15.30
2017-09-30T19:10:35.813Z,15.30
2017-09-30T19:13:02.205Z,15.20
2017-09-30T19:15:29.977Z,15.10
2017-09-30T19:17:56.312Z,14.90
2017-09-30T19:20:22.667Z,14.90
2017-09-30T19:22:49.006Z,15.00
2017-09-30T19:25:15.282Z,15.00
2017-09-30T19:27:41.580Z,15.10
2017-09-30T19:30:07.968Z,14.70
2017-09-30T19:32:35.251Z,14.70
2017-09-30T19:35:01.587Z,14.70
2017-09-30T19:37:27.928Z,14.70
2017-09-30T19:39:54.259Z,14.60
2017-09-30T19:42:20.652Z,14.70
2017-09-30T19:44:46.961Z,14.90
2017-09-30T19:47:15.103Z,15.10
2017-09-30T19:49:41.387Z,15.10
2017-09-30T19:52:07.708Z,15.10
2017-09-30T19:54:33.992Z,15.30
2017-09-30T19:57:00.330Z,15.40
2017-09-30T19:59:27.444Z,15.50
2017-09-30T20:01:53.819Z,15.60
2017-09-30T20:04:20.790Z,15.50
2017-09-30T20:06:47.079Z,15.50
2017-09-30T20:09:13.393Z,15.70
2017-09-30T20:11:39.695Z,15.70
2017-09-30T20:14:05.997Z,15.70
2017-09-30T20:16:32.300Z,15.60
2017-09-30T20:19:00.530Z,15.60
2017-09-30T20:21:26.828Z,15.60
2017-09-30T20:23:53.521Z,15.40
2017-09-30T20:26:20.147Z,15.40
2017-09-30T20:28:46.466Z,15.10
2017-09-30T20:31:12.819Z,15.10
2017-09-30T20:33:39.994Z,15.10
2017-09-30T20:36:06.323Z,15.20
2017-09-30T20:38:32.654Z,15.20
2017-09-30T20:40:59.277Z,15.30
2017-09-30T20:43:25.609Z,15.40
2017-09-30T20:45:51.923Z,15.60
2017-09-30T20:48:18.809Z,15.50
2017-09-30T20:50:45.162Z,15.10
2017-09-30T20:53:11.747Z,15.20
2017-09-30T20:55:38.177Z,15.00
2017-09-30T20:58:04.470Z,15.00
2017-09-30T21:00:30.760Z,15.00
2017-09-30T21:02:57.102Z,15.10
2017-09-30T21:05:23.495Z,15.10
2017-09-30T21:07:49.833Z,14.90
2017-09-30T21:10:16.188Z,14.80
2017-09-30T21:12:42.477Z,14.90
2017-09-30T21:15:08.825Z,15.00
2017-09-30T21:17:35.959Z,14.90
2017-09-30T21:20:02.285Z,14.60
2017-09-30T21:22:28.582Z,14.70
2017-09-30T21:24:54.945Z,14.70
2017-09-30T21:27:21.272Z,14.70
2017-09-30T21:29:47.596Z,14.90
2017-09-30T21:32:13.988Z,14.90
2017-09-30T21:34:40.353Z,14.80
2017-09-30T21:37:06.750Z,14.80
2017-09-30T21:39:33.116Z,14.80
2017-09-30T21:41:59.680Z,14.80
2017-09-30T21:44:26.159Z,14.80
2017-09-30T21:46:52.896Z,14.60
2017-09-30T21:49:19.242Z,14.60
2017-09-30T21:51:45.588Z,14.60
2017-09-30T21:54:11.965Z,14.40
2017-09-30T21:56:39.315Z,14.60
2017-09-30T21:59:05.765Z,14.60
2017-09-30T22:01:32.080Z,14.70
2017-09-30T22:03:58.451Z,14.70
2017-09-30T22:06:25.744Z,14.40
2017-09-30T22:08:52.056Z,14.50
2017-09-30T22:11:18.342Z,14.40
2017-09-30T22:13:44.630Z,14.40
2017-09-30T22:16:10.935Z,14.40
2017-09-30T22:18:37.221Z,14.40
2017-09-30T22:21:04.519Z,14.50
2017-09-30T22:23:30.792Z,14.70
2017-09-30T22:25:57.773Z,14.50
2017-09-30T22:28:24.450Z,14.70
2017-09-30T22:30:50.777Z,14.70
2017-09-30T22:33:17.075Z,14.80
2017-09-30T22:35:43.737Z,15.10
2017-09-30T22:38:10.023Z,15.10
2017-09-30T22:40:36.324Z,15.10
2017-09-30T22:43:02.629Z,15.20
2017-09-30T22:45:28.928Z,15.10
2017-09-30T22:47:55.222Z,15.10
2017-09-30T22:50:22.447Z,15.10
2017-09-30T22:52:48.718Z,15.10
2017-09-30T22:55:15.970Z,14.90
2017-09-30T22:57:42.248Z,14.80
2017-09-30T23:00:08.541Z,14.80
2017-09-30T23:02:34.829Z,14.70
2017-09-30T23:05:01.152Z,14.70
2017-09-30T23:07:27.457Z,14.60
2017-09-30T23:09:53.748Z,14.30
2017-09-30T23:12:20.044Z,14.10
2017-09-30T23:14:46.350Z,14.10
2017-09-30T23:17:12.655Z,14.00
2017-09-30T23:19:39.865Z,14.40
2017-09-30T23:22:06.143Z,14.40
2017-09-30T23:24:33.329Z,14.50
2017-09-30T23:26:59.628Z,14.40
2017-09-30T23:29:25.891Z,14.50
2017-09-30T23:31:52.175Z,14.70
2017-09-30T23:34:18.820Z,14.50
2017-09-30T23:36:45.082Z,14.60
2017-09-30T23:39:11.371Z,14.40
2017-09-30T23:41:38.002Z,14.40
2017-09-30T23:44:04.667Z,14.40
2017-09-30T23:46:30.942Z,14.40
2017-09-30T23:48:57.226Z,14.50
2017-09-30T23:51:23.514Z,14.60
2017-09-30T23:53:49.803Z,14.70
2017-09-30T23:56:16.662Z,14.70
2017-09-30T23:58:42.979Z,14.50
